Atlantic City, New Jersey
Current Conditions -  °F | °C
As of 6:02 PM on Thursday 27 Nov 2014 (Local Time) from KACY Reporting Station
Few Clouds Few Clouds  
Wind Chill: 29°   Ceiling: Unl
Heat Index: 34°   Visibility: 10mi
Dew Point: 29°   Wind: 6mph
Humidity: 82%   Direction: 300°WNW
Pressure: 30.06"   Gusts: NA
Location:  39.36°N, 74.43°W
Report Text: KACY 272302Z 30005KT 10SM FEW026 01/M02 A3006 RMK AO2 T00111017
Loading
Personal Weather Stations






























Interactive Weather Map New forecast layout! Learn more

10-Day Weather Forecast

Advertisements
Track Severe Weather on mobile